createdAt,value
2023-10-10T00:01:47.126Z,14.45
2023-10-10T00:06:51.167Z,14.46
2023-10-10T00:11:59.080Z,14.59
2023-10-10T00:17:02.192Z,14.58
2023-10-10T00:22:08.661Z,14.63
2023-10-10T00:27:15.041Z,14.58
2023-10-10T00:32:19.324Z,14.49
2023-10-10T00:42:39.414Z,14.52
2023-10-10T00:47:46.032Z,14.57
2023-10-10T00:52:53.343Z,14.46
2023-10-10T00:58:00.032Z,14.45
2023-10-10T01:03:08.730Z,14.37
2023-10-10T01:08:11.966Z,14.44
2023-10-10T01:13:16.328Z,14.35
2023-10-10T01:18:19.311Z,14.44
2023-10-10T01:23:28.101Z,14.53
2023-10-10T01:28:35.919Z,14.49
2023-10-10T01:33:43.215Z,14.45
2023-10-10T01:39:21.162Z,14.36
2023-10-10T01:44:24.890Z,14.38
2023-10-10T01:49:30.668Z,14.46
2023-10-10T01:54:41.806Z,14.46
2023-10-10T01:59:45.189Z,14.28
2023-10-10T02:04:52.617Z,14.44
2023-10-10T02:10:12.863Z,14.14
2023-10-10T02:15:20.165Z,14.48
2023-10-10T02:20:50.959Z,14.44
2023-10-10T02:25:56.015Z,14.39
2023-10-10T02:31:04.564Z,14.43
2023-10-10T02:36:14.542Z,14.41
2023-10-10T02:41:28.223Z,14.40
2023-10-10T02:46:37.171Z,14.43
2023-10-10T02:51:43.008Z,14.29
2023-10-10T02:56:47.330Z,14.21
2023-10-10T03:02:00.490Z,14.33
2023-10-10T03:07:07.004Z,14.13
2023-10-10T03:12:18.722Z,14.38
2023-10-10T03:17:43.916Z,14.24
2023-10-10T03:23:04.676Z,14.32
2023-10-10T03:28:19.708Z,14.32
2023-10-10T03:33:44.929Z,14.37
2023-10-10T03:39:08.075Z,14.15
2023-10-10T03:44:29.779Z,14.40
2023-10-10T03:49:50.516Z,14.25
2023-10-10T03:55:11.448Z,14.38
2023-10-10T04:00:34.510Z,14.25
2023-10-10T04:05:54.809Z,14.36
2023-10-10T04:11:15.044Z,14.25
2023-10-10T04:16:36.606Z,14.45
2023-10-10T04:21:56.985Z,14.35
2023-10-10T04:27:17.261Z,14.35
2023-10-10T04:32:39.023Z,14.40
2023-10-10T04:37:59.120Z,14.45
2023-10-10T04:43:19.539Z,14.30
2023-10-10T04:48:40.886Z,14.32
2023-10-10T04:54:01.120Z,14.37
2023-10-10T04:59:21.509Z,14.50
2023-10-10T05:04:43.097Z,14.36
2023-10-10T05:10:03.601Z,14.19
2023-10-10T05:15:33.468Z,14.45
2023-10-10T05:20:55.330Z,14.13
2023-10-10T05:26:00.608Z,14.13
2023-10-10T05:31:05.107Z,14.15
2023-10-10T05:36:09.653Z,14.03
2023-10-10T05:41:13.412Z,14.13
2023-10-10T05:46:17.213Z,14.11
2023-10-10T05:51:21.656Z,14.26
2023-10-10T05:56:25.038Z,14.27
2023-10-10T06:01:28.715Z,14.23
2023-10-10T06:06:33.074Z,14.26
2023-10-10T06:11:36.241Z,14.34
2023-10-10T06:16:39.422Z,14.10
2023-10-10T06:21:43.885Z,14.31
2023-10-10T06:26:49.829Z,14.26
2023-10-10T06:31:52.762Z,14.26
2023-10-10T06:36:56.995Z,14.53
2023-10-10T06:42:00.330Z,14.79
2023-10-10T06:47:10.403Z,14.63
2023-10-10T06:52:19.560Z,14.75
2023-10-10T06:57:36.701Z,14.70
2023-10-10T07:02:40.819Z,14.88
2023-10-10T07:07:45.176Z,15.07
2023-10-10T07:12:48.603Z,15.31
2023-10-10T07:18:06.142Z,15.35
2023-10-10T07:23:10.556Z,15.34
2023-10-10T07:28:16.304Z,15.24
2023-10-10T07:33:23.790Z,15.36
2023-10-10T07:38:30.292Z,15.74
2023-10-10T07:43:35.904Z,15.60
2023-10-10T07:48:45.464Z,15.81
2023-10-10T07:53:59.657Z,16.06
2023-10-10T07:59:06.349Z,15.85
2023-10-10T08:04:09.590Z,15.72
2023-10-10T08:09:19.758Z,15.43
2023-10-10T08:14:31.091Z,15.96
2023-10-10T08:19:35.680Z,16.10
2023-10-10T08:24:44.579Z,16.01
2023-10-10T08:29:48.855Z,16.08
2023-10-10T08:34:51.910Z,16.07
2023-10-10T08:39:56.495Z,16.36
2023-10-10T08:45:02.751Z,16.50
2023-10-10T08:50:07.781Z,16.60
2023-10-10T08:55:15.112Z,16.74
2023-10-10T09:00:19.029Z,16.90
2023-10-10T09:05:24.818Z,17.10
2023-10-10T09:10:30.127Z,16.97
2023-10-10T09:15:35.151Z,17.10
2023-10-10T09:20:38.500Z,17.17
2023-10-10T09:25:45.483Z,17.03
2023-10-10T09:31:00.197Z,16.90
2023-10-10T09:36:10.456Z,16.93
2023-10-10T09:41:28.814Z,17.44
2023-10-10T09:46:59.924Z,17.26
2023-10-10T09:52:18.644Z,17.41
2023-10-10T09:57:27.957Z,17.10
2023-10-10T10:02:41.795Z,17.81
2023-10-10T10:08:01.481Z,17.94
2023-10-10T10:13:22.586Z,17.93
2023-10-10T10:18:30.828Z,17.87
2023-10-10T10:23:39.567Z,18.08
2023-10-10T10:28:46.472Z,18.07
2023-10-10T10:34:06.931Z,17.93
2023-10-10T10:39:22.204Z,17.87
2023-10-10T10:44:46.505Z,18.37
2023-10-10T10:49:55.578Z,18.23
2023-10-10T10:55:20.097Z,18.75
2023-10-10T11:00:55.637Z,18.61
2023-10-10T11:06:01.012Z,18.22
2023-10-10T11:11:24.159Z,18.61
2023-10-10T11:16:38.011Z,18.69
2023-10-10T11:21:48.795Z,18.50
2023-10-10T11:27:03.744Z,18.97
2023-10-10T11:32:09.444Z,19.30
2023-10-10T11:37:18.534Z,19.41
2023-10-10T11:42:34.325Z,18.41
2023-10-10T11:47:44.488Z,18.26
2023-10-10T11:52:54.756Z,18.80
2023-10-10T11:57:59.260Z,19.08
2023-10-10T12:03:06.994Z,18.20
2023-10-10T12:08:10.018Z,18.44
2023-10-10T12:13:20.986Z,19.58
2023-10-10T12:18:27.398Z,19.13
2023-10-10T12:23:31.337Z,18.53
2023-10-10T12:28:34.443Z,18.64
2023-10-10T12:33:38.780Z,18.74
2023-10-10T12:38:41.873Z,19.03
2023-10-10T12:43:44.852Z,19.69
2023-10-10T12:48:52.877Z,19.98
2023-10-10T12:54:02.237Z,19.85
2023-10-10T12:59:23.601Z,19.59
2023-10-10T13:04:33.131Z,19.80
2023-10-10T13:09:43.619Z,19.25
2023-10-10T13:14:51.884Z,19.24
2023-10-10T13:19:59.926Z,19.43
2023-10-10T13:25:09.840Z,19.60
2023-10-10T13:30:13.825Z,19.39
2023-10-10T13:35:19.079Z,19.50
2023-10-10T13:40:24.080Z,19.61
2023-10-10T13:45:29.499Z,19.60
2023-10-10T13:50:43.301Z,19.69
2023-10-10T13:55:47.385Z,19.46
2023-10-10T14:00:56.888Z,19.50
2023-10-10T14:06:05.320Z,19.52
2023-10-10T14:11:08.533Z,19.56
2023-10-10T14:16:12.502Z,19.72
2023-10-10T14:21:18.575Z,19.70
2023-10-10T14:26:27.483Z,19.52
2023-10-10T14:31:32.281Z,19.64
2023-10-10T14:36:40.442Z,19.62
2023-10-10T14:41:44.691Z,19.03
2023-10-10T14:46:47.727Z,19.42
2023-10-10T14:51:54.090Z,19.18
2023-10-10T14:56:57.495Z,19.64
2023-10-10T15:02:01.990Z,19.72
2023-10-10T15:07:06.298Z,19.64
2023-10-10T15:12:09.841Z,19.51
2023-10-10T15:17:13.486Z,19.41
2023-10-10T15:22:18.881Z,19.29
2023-10-10T15:27:21.814Z,18.91
2023-10-10T15:32:24.729Z,18.79
2023-10-10T15:37:31.132Z,18.74
2023-10-10T15:42:34.369Z,18.61
2023-10-10T15:47:37.373Z,18.57
2023-10-10T15:52:42.956Z,18.61
2023-10-10T15:57:46.071Z,18.34
2023-10-10T16:02:53.513Z,18.17
2023-10-10T16:08:08.815Z,18.17
2023-10-10T16:13:12.623Z,17.96
2023-10-10T16:18:17.144Z,17.94
2023-10-10T16:23:24.660Z,17.75
2023-10-10T16:28:28.624Z,17.80
2023-10-10T16:33:31.638Z,17.74
2023-10-10T16:38:37.910Z,17.78
2023-10-10T16:48:47.758Z,17.37
2023-10-10T16:53:54.332Z,17.28
2023-10-10T16:58:57.418Z,17.38
2023-10-10T17:04:01.434Z,17.24
2023-10-10T17:09:06.257Z,17.28
2023-10-10T17:14:09.253Z,17.31
2023-10-10T17:19:17.401Z,17.07
2023-10-10T17:24:22.045Z,16.97
2023-10-10T17:29:25.400Z,16.60
2023-10-10T17:34:34.204Z,16.87
2023-10-10T17:39:38.599Z,17.05
2023-10-10T17:44:41.619Z,16.89
2023-10-10T17:49:44.581Z,16.80
2023-10-10T17:54:50.194Z,16.86
2023-10-10T17:59:53.720Z,17.00
2023-10-10T18:04:57.101Z,16.95
2023-10-10T18:10:01.391Z,16.78
2023-10-10T18:15:06.853Z,16.78
2023-10-10T18:20:16.779Z,16.75
2023-10-10T18:25:24.265Z,16.73
2023-10-10T18:30:27.177Z,16.73
2023-10-10T18:35:30.132Z,16.41
2023-10-10T18:40:34.435Z,16.47
2023-10-10T18:45:39.457Z,16.56
2023-10-10T18:50:42.464Z,16.34
2023-10-10T18:55:50.554Z,16.44
2023-10-10T19:00:56.285Z,16.34
2023-10-10T19:05:59.409Z,16.57
2023-10-10T19:11:04.131Z,16.82
2023-10-10T19:16:07.194Z,17.01
2023-10-10T19:21:16.643Z,17.26
2023-10-10T19:26:22.629Z,17.40
2023-10-10T19:31:26.798Z,17.44
2023-10-10T19:36:29.879Z,17.50
2023-10-10T19:41:35.824Z,17.40
2023-10-10T19:46:41.046Z,17.36
2023-10-10T19:51:45.571Z,17.30
2023-10-10T19:56:50.124Z,17.30
2023-10-10T20:01:53.173Z,17.26
2023-10-10T20:06:56.152Z,17.14
2023-10-10T20:12:00.448Z,17.20
2023-10-10T20:17:03.386Z,17.17
2023-10-10T20:22:06.315Z,17.13
2023-10-10T20:27:11.675Z,17.11
2023-10-10T20:32:16.408Z,17.18
2023-10-10T20:37:21.450Z,17.19
2023-10-10T20:42:25.826Z,17.30
2023-10-10T20:47:29.000Z,17.31
2023-10-10T20:52:33.264Z,17.22
2023-10-10T20:57:38.787Z,17.40
2023-10-10T21:02:43.633Z,17.47
2023-10-10T21:07:47.091Z,17.60
2023-10-10T21:12:51.972Z,17.68
2023-10-10T21:18:00.044Z,17.75
2023-10-10T21:23:04.091Z,17.74
2023-10-10T21:28:08.749Z,17.67
2023-10-10T21:33:11.969Z,17.61
2023-10-10T21:38:15.037Z,17.70
2023-10-10T21:43:19.301Z,17.60
2023-10-10T21:48:22.548Z,17.61
2023-10-10T21:53:25.519Z,17.62
2023-10-10T21:58:29.786Z,17.64
2023-10-10T22:03:34.017Z,17.79
2023-10-10T22:08:37.709Z,17.84
2023-10-10T22:13:42.116Z,17.71
2023-10-10T22:18:48.417Z,17.71
2023-10-10T22:23:51.537Z,17.63
2023-10-10T22:28:55.815Z,17.67
2023-10-10T22:33:58.830Z,17.48
2023-10-10T22:39:07.940Z,17.53
2023-10-10T22:44:15.470Z,17.45
2023-10-10T22:49:19.514Z,17.36
2023-10-10T22:54:22.897Z,17.28
2023-10-10T22:59:27.929Z,17.23
2023-10-10T23:04:32.877Z,17.18
2023-10-10T23:09:38.357Z,17.23
2023-10-10T23:14:46.616Z,17.15
2023-10-10T23:19:49.593Z,17.07
2023-10-10T23:24:53.378Z,17.09
2023-10-10T23:29:57.793Z,17.28
2023-10-10T23:35:00.868Z,17.20
2023-10-10T23:40:14.948Z,17.22
2023-10-10T23:45:23.677Z,17.38
2023-10-10T23:50:28.425Z,17.28
2023-10-10T23:55:31.360Z,17.12
